Nora, Minnesota
Current Conditions -  °F | °C
As of 6:15 PM on Friday 19 Dec 2014 (Local Time) from KFSE Reporting Station
Haze Haze  
Wind Chill: 17°   Ceiling: 600
Heat Index: 25°   Visibility: 4mi
Dew Point: 23°   Wind: 7mph
Humidity: 93%   Direction: 170°S
Pressure: 30.05"   Gusts: NA
Location:  47.3892°N, 95.4294°W
Report Text: KFSE 200015Z AUTO 17006KT 4SM BR OVC006 M04/M05 A3005 RMK AO2
Loading
Personal Weather Stations






























Interactive Weather Map New forecast layout! Learn more

10-Day Weather Forecast

Advertisements
Track Severe Weather on mobile